sensor_id;sensor_type;location;lat;lon;timestamp;P1;durP1;ratioP1;P2;durP2;ratioP2
53391;SDS011;41667;51.922;8.850;2022-10-16T00:01:11;8.18;;;1.83;;
53391;SDS011;41667;51.922;8.850;2022-10-16T00:03:37;1.98;;;1.55;;
53391;SDS011;41667;51.922;8.850;2022-10-16T00:06:02;4.97;;;1.98;;
53391;SDS011;41667;51.922;8.850;2022-10-16T00:08:28;4.30;;;2.85;;
53391;SDS011;41667;51.922;8.850;2022-10-16T00:10:58;2.93;;;1.60;;
53391;SDS011;41667;51.922;8.850;2022-10-16T00:13:23;3.13;;;1.92;;
53391;SDS011;41667;51.922;8.850;2022-10-16T00:15:49;3.60;;;1.70;;
53391;SDS011;41667;51.922;8.850;2022-10-16T00:18:14;5.43;;;1.60;;
53391;SDS011;41667;51.922;8.850;2022-10-16T00:20:39;2.40;;;1.73;;
53391;SDS011;41667;51.922;8.850;2022-10-16T00:23:04;6.60;;;2.33;;
53391;SDS011;41667;51.922;8.850;2022-10-16T00:25:30;18.05;;;2.33;;
53391;SDS011;41667;51.922;8.850;2022-10-16T00:27:57;3.28;;;1.90;;
53391;SDS011;41667;51.922;8.850;2022-10-16T00:30:22;3.90;;;1.50;;
53391;SDS011;41667;51.922;8.850;2022-10-16T00:32:48;2.92;;;2.40;;
53391;SDS011;41667;51.922;8.850;2022-10-16T00:35:13;6.27;;;2.17;;
53391;SDS011;41667;51.922;8.850;2022-10-16T00:37:38;2.20;;;2.00;;
53391;SDS011;41667;51.922;8.850;2022-10-16T00:40:03;5.45;;;1.67;;
53391;SDS011;41667;51.922;8.850;2022-10-16T00:42:29;3.80;;;1.77;;
53391;SDS011;41667;51.922;8.850;2022-10-16T00:44:55;3.30;;;2.23;;
53391;SDS011;41667;51.922;8.850;2022-10-16T00:47:26;4.72;;;2.53;;
53391;SDS011;41667;51.922;8.850;2022-10-16T00:49:54;2.28;;;1.77;;
53391;SDS011;41667;51.922;8.850;2022-10-16T00:52:20;4.70;;;2.00;;
53391;SDS011;41667;51.922;8.850;2022-10-16T00:54:46;3.25;;;1.73;;
53391;SDS011;41667;51.922;8.850;2022-10-16T00:57:11;3.58;;;1.85;;
53391;SDS011;41667;51.922;8.850;2022-10-16T00:59:37;4.05;;;1.58;;
53391;SDS011;41667;51.922;8.850;2022-10-16T01:02:04;3.30;;;1.83;;
53391;SDS011;41667;51.922;8.850;2022-10-16T01:04:31;5.40;;;2.08;;
53391;SDS011;41667;51.922;8.850;2022-10-16T01:12:06;2.33;;;1.80;;
53391;SDS011;41667;51.922;8.850;2022-10-16T01:17:19;3.97;;;2.10;;
53391;SDS011;41667;51.922;8.850;2022-10-16T01:22:33;4.93;;;2.10;;
53391;SDS011;41667;51.922;8.850;2022-10-16T01:25:00;2.53;;;2.22;;
53391;SDS011;41667;51.922;8.850;2022-10-16T01:27:30;5.07;;;2.00;;
53391;SDS011;41667;51.922;8.850;2022-10-16T01:30:07;4.10;;;1.73;;
53391;SDS011;41667;51.922;8.850;2022-10-16T01:32:38;1.90;;;1.75;;
53391;SDS011;41667;51.922;8.850;2022-10-16T01:35:06;3.80;;;1.70;;
53391;SDS011;41667;51.922;8.850;2022-10-16T01:40:02;6.43;;;1.90;;
53391;SDS011;41667;51.922;8.850;2022-10-16T01:42:40;6.97;;;1.88;;
53391;SDS011;41667;51.922;8.850;2022-10-16T01:45:06;5.43;;;2.05;;
53391;SDS011;41667;51.922;8.850;2022-10-16T01:47:33;7.55;;;2.05;;
53391;SDS011;41667;51.922;8.850;2022-10-16T01:49:58;9.20;;;3.03;;
53391;SDS011;41667;51.922;8.850;2022-10-16T01:52:25;3.80;;;1.83;;
53391;SDS011;41667;51.922;8.850;2022-10-16T01:54:52;4.25;;;1.92;;
53391;SDS011;41667;51.922;8.850;2022-10-16T01:57:18;2.75;;;2.08;;
53391;SDS011;41667;51.922;8.850;2022-10-16T01:59:46;5.57;;;1.90;;
53391;SDS011;41667;51.922;8.850;2022-10-16T02:02:12;1.65;;;1.55;;
53391;SDS011;41667;51.922;8.850;2022-10-16T02:04:39;3.22;;;2.13;;
53391;SDS011;41667;51.922;8.850;2022-10-16T02:07:07;2.15;;;2.00;;
53391;SDS011;41667;51.922;8.850;2022-10-16T02:09:33;2.58;;;2.15;;
53391;SDS011;41667;51.922;8.850;2022-10-16T02:11:59;4.70;;;2.28;;
53391;SDS011;41667;51.922;8.850;2022-10-16T02:14:27;3.65;;;2.10;;
53391;SDS011;41667;51.922;8.850;2022-10-16T02:16:53;8.50;;;2.05;;
53391;SDS011;41667;51.922;8.850;2022-10-16T02:19:18;6.50;;;2.03;;
53391;SDS011;41667;51.922;8.850;2022-10-16T02:21:55;2.35;;;1.70;;
53391;SDS011;41667;51.922;8.850;2022-10-16T02:26:53;2.47;;;1.60;;
53391;SDS011;41667;51.922;8.850;2022-10-16T02:29:22;2.72;;;1.92;;
53391;SDS011;41667;51.922;8.850;2022-10-16T02:31:49;3.20;;;1.75;;
53391;SDS011;41667;51.922;8.850;2022-10-16T02:34:16;6.03;;;1.73;;
53391;SDS011;41667;51.922;8.850;2022-10-16T02:36:42;2.38;;;2.17;;
53391;SDS011;41667;51.922;8.850;2022-10-16T02:39:09;5.55;;;2.20;;
53391;SDS011;41667;51.922;8.850;2022-10-16T02:41:36;3.60;;;2.17;;
53391;SDS011;41667;51.922;8.850;2022-10-16T02:44:01;9.60;;;3.75;;
53391;SDS011;41667;51.922;8.850;2022-10-16T02:46:26;3.63;;;2.40;;
53391;SDS011;41667;51.922;8.850;2022-10-16T02:48:51;2.78;;;2.00;;
53391;SDS011;41667;51.922;8.850;2022-10-16T02:51:17;6.00;;;2.50;;
53391;SDS011;41667;51.922;8.850;2022-10-16T02:53:42;5.67;;;2.53;;
53391;SDS011;41667;51.922;8.850;2022-10-16T02:56:07;4.30;;;2.20;;
53391;SDS011;41667;51.922;8.850;2022-10-16T02:58:32;2.03;;;1.73;;
53391;SDS011;41667;51.922;8.850;2022-10-16T03:00:57;3.28;;;1.63;;
53391;SDS011;41667;51.922;8.850;2022-10-16T03:03:22;1.93;;;1.77;;
53391;SDS011;41667;51.922;8.850;2022-10-16T03:05:48;3.27;;;1.70;;
53391;SDS011;41667;51.922;8.850;2022-10-16T03:08:13;2.22;;;1.60;;
53391;SDS011;41667;51.922;8.850;2022-10-16T03:10:38;3.10;;;1.60;;
53391;SDS011;41667;51.922;8.850;2022-10-16T03:13:03;1.33;;;1.30;;
53391;SDS011;41667;51.922;8.850;2022-10-16T03:15:28;2.07;;;1.40;;
53391;SDS011;41667;51.922;8.850;2022-10-16T03:17:54;1.58;;;1.45;;
53391;SDS011;41667;51.922;8.850;2022-10-16T03:20:19;1.92;;;1.50;;
53391;SDS011;41667;51.922;8.850;2022-10-16T03:22:44;6.93;;;3.45;;
53391;SDS011;41667;51.922;8.850;2022-10-16T03:25:10;2.83;;;2.00;;
53391;SDS011;41667;51.922;8.850;2022-10-16T03:27:35;2.45;;;1.27;;
53391;SDS011;41667;51.922;8.850;2022-10-16T03:30:00;1.10;;;1.10;;
53391;SDS011;41667;51.922;8.850;2022-10-16T03:32:25;4.22;;;1.55;;
53391;SDS011;41667;51.922;8.850;2022-10-16T03:34:50;2.35;;;1.20;;
53391;SDS011;41667;51.922;8.850;2022-10-16T03:37:16;2.10;;;1.10;;
53391;SDS011;41667;51.922;8.850;2022-10-16T03:39:41;1.73;;;1.13;;
53391;SDS011;41667;51.922;8.850;2022-10-16T03:42:06;1.10;;;1.10;;
53391;SDS011;41667;51.922;8.850;2022-10-16T03:44:31;3.17;;;1.20;;
53391;SDS011;41667;51.922;8.850;2022-10-16T03:46:56;1.48;;;1.17;;
53391;SDS011;41667;51.922;8.850;2022-10-16T03:49:21;2.45;;;1.20;;
53391;SDS011;41667;51.922;8.850;2022-10-16T03:51:47;1.40;;;1.30;;
53391;SDS011;41667;51.922;8.850;2022-10-16T03:54:12;1.80;;;1.30;;
53391;SDS011;41667;51.922;8.850;2022-10-16T03:56:37;1.00;;;0.90;;
53391;SDS011;41667;51.922;8.850;2022-10-16T03:59:02;1.27;;;1.27;;
53391;SDS011;41667;51.922;8.850;2022-10-16T04:01:28;3.47;;;1.10;;
53391;SDS011;41667;51.922;8.850;2022-10-16T04:03:53;1.80;;;1.30;;
53391;SDS011;41667;51.922;8.850;2022-10-16T04:06:18;3.10;;;1.33;;
53391;SDS011;41667;51.922;8.850;2022-10-16T04:08:43;1.50;;;1.40;;
53391;SDS011;41667;51.922;8.850;2022-10-16T04:11:08;1.30;;;1.20;;
53391;SDS011;41667;51.922;8.850;2022-10-16T04:13:34;1.47;;;1.10;;
53391;SDS011;41667;51.922;8.850;2022-10-16T04:15:59;1.93;;;1.00;;
53391;SDS011;41667;51.922;8.850;2022-10-16T04:18:24;2.77;;;1.37;;
53391;SDS011;41667;51.922;8.850;2022-10-16T04:20:52;2.42;;;1.00;;
53391;SDS011;41667;51.922;8.850;2022-10-16T04:23:18;0.95;;;0.90;;
53391;SDS011;41667;51.922;8.850;2022-10-16T04:25:43;3.80;;;1.57;;
53391;SDS011;41667;51.922;8.850;2022-10-16T04:28:08;4.47;;;1.20;;
53391;SDS011;41667;51.922;8.850;2022-10-16T04:30:33;5.73;;;1.20;;
53391;SDS011;41667;51.922;8.850;2022-10-16T04:32:58;2.97;;;1.15;;
53391;SDS011;41667;51.922;8.850;2022-10-16T04:35:23;3.37;;;1.27;;
53391;SDS011;41667;51.922;8.850;2022-10-16T04:37:49;3.03;;;1.30;;
53391;SDS011;41667;51.922;8.850;2022-10-16T04:40:15;2.25;;;1.13;;
53391;SDS011;41667;51.922;8.850;2022-10-16T04:42:40;1.70;;;1.20;;
53391;SDS011;41667;51.922;8.850;2022-10-16T04:45:05;2.63;;;1.40;;
53391;SDS011;41667;51.922;8.850;2022-10-16T04:47:31;1.63;;;1.40;;
53391;SDS011;41667;51.922;8.850;2022-10-16T04:49:56;5.13;;;1.17;;
53391;SDS011;41667;51.922;8.850;2022-10-16T04:52:21;1.55;;;1.33;;
53391;SDS011;41667;51.922;8.850;2022-10-16T04:54:49;5.00;;;1.35;;
53391;SDS011;41667;51.922;8.850;2022-10-16T04:57:15;3.53;;;1.52;;
53391;SDS011;41667;51.922;8.850;2022-10-16T04:59:40;2.07;;;1.53;;
53391;SDS011;41667;51.922;8.850;2022-10-16T05:02:05;1.40;;;1.30;;
53391;SDS011;41667;51.922;8.850;2022-10-16T05:04:30;3.33;;;1.10;;
53391;SDS011;41667;51.922;8.850;2022-10-16T05:06:55;2.30;;;1.90;;
53391;SDS011;41667;51.922;8.850;2022-10-16T05:09:21;5.93;;;1.93;;
53391;SDS011;41667;51.922;8.850;2022-10-16T05:11:46;1.35;;;1.25;;
53391;SDS011;41667;51.922;8.850;2022-10-16T05:14:11;3.03;;;1.00;;
53391;SDS011;41667;51.922;8.850;2022-10-16T05:16:36;2.13;;;1.37;;
53391;SDS011;41667;51.922;8.850;2022-10-16T05:19:02;1.13;;;1.10;;
53391;SDS011;41667;51.922;8.850;2022-10-16T05:21:27;1.20;;;1.20;;
53391;SDS011;41667;51.922;8.850;2022-10-16T05:23:52;3.00;;;1.10;;
53391;SDS011;41667;51.922;8.850;2022-10-16T05:26:18;1.52;;;1.42;;
53391;SDS011;41667;51.922;8.850;2022-10-16T05:28:43;3.55;;;1.45;;
53391;SDS011;41667;51.922;8.850;2022-10-16T05:31:09;1.73;;;1.63;;
53391;SDS011;41667;51.922;8.850;2022-10-16T05:33:34;1.75;;;1.20;;
53391;SDS011;41667;51.922;8.850;2022-10-16T05:36:03;1.15;;;1.10;;
53391;SDS011;41667;51.922;8.850;2022-10-16T05:38:28;1.40;;;1.30;;
53391;SDS011;41667;51.922;8.850;2022-10-16T05:40:54;1.13;;;1.13;;
53391;SDS011;41667;51.922;8.850;2022-10-16T05:43:19;1.13;;;1.00;;
53391;SDS011;41667;51.922;8.850;2022-10-16T05:45:52;1.15;;;1.05;;
53391;SDS011;41667;51.922;8.850;2022-10-16T05:48:17;6.57;;;1.27;;
53391;SDS011;41667;51.922;8.850;2022-10-16T05:50:43;1.40;;;1.20;;
53391;SDS011;41667;51.922;8.850;2022-10-16T05:53:08;0.90;;;0.90;;
53391;SDS011;41667;51.922;8.850;2022-10-16T05:55:33;4.80;;;1.07;;
53391;SDS011;41667;51.922;8.850;2022-10-16T05:57:58;2.33;;;0.90;;
53391;SDS011;41667;51.922;8.850;2022-10-16T06:00:23;2.50;;;1.20;;
53391;SDS011;41667;51.922;8.850;2022-10-16T06:02:48;2.13;;;0.70;;
53391;SDS011;41667;51.922;8.850;2022-10-16T06:05:14;3.38;;;1.23;;
53391;SDS011;41667;51.922;8.850;2022-10-16T06:07:39;1.10;;;1.10;;
53391;SDS011;41667;51.922;8.850;2022-10-16T06:10:04;1.17;;;1.07;;
53391;SDS011;41667;51.922;8.850;2022-10-16T06:12:30;1.30;;;0.88;;
53391;SDS011;41667;51.922;8.850;2022-10-16T06:14:55;1.90;;;1.00;;
53391;SDS011;41667;51.922;8.850;2022-10-16T06:17:20;1.07;;;0.90;;
53391;SDS011;41667;51.922;8.850;2022-10-16T06:19:45;0.87;;;0.87;;
53391;SDS011;41667;51.922;8.850;2022-10-16T06:22:10;1.20;;;1.10;;
53391;SDS011;41667;51.922;8.850;2022-10-16T06:24:35;6.23;;;1.27;;
53391;SDS011;41667;51.922;8.850;2022-10-16T06:27:01;1.53;;;1.07;;
53391;SDS011;41667;51.922;8.850;2022-10-16T06:29:26;0.73;;;0.73;;
53391;SDS011;41667;51.922;8.850;2022-10-16T06:31:51;0.60;;;0.60;;
53391;SDS011;41667;51.922;8.850;2022-10-16T06:34:17;3.88;;;1.00;;
53391;SDS011;41667;51.922;8.850;2022-10-16T06:36:43;5.77;;;1.43;;
53391;SDS011;41667;51.922;8.850;2022-10-16T06:39:08;3.38;;;0.88;;
53391;SDS011;41667;51.922;8.850;2022-10-16T06:41:33;2.43;;;0.90;;
53391;SDS011;41667;51.922;8.850;2022-10-16T06:43:58;3.03;;;0.75;;
53391;SDS011;41667;51.922;8.850;2022-10-16T06:46:24;11.53;;;1.00;;
53391;SDS011;41667;51.922;8.850;2022-10-16T06:48:50;1.13;;;1.00;;
53391;SDS011;41667;51.922;8.850;2022-10-16T06:51:16;2.38;;;0.88;;
53391;SDS011;41667;51.922;8.850;2022-10-16T06:53:45;0.93;;;0.93;;
53391;SDS011;41667;51.922;8.850;2022-10-16T06:56:11;1.33;;;1.23;;
53391;SDS011;41667;51.922;8.850;2022-10-16T06:58:37;1.00;;;1.00;;
53391;SDS011;41667;51.922;8.850;2022-10-16T07:01:03;3.70;;;1.02;;
53391;SDS011;41667;51.922;8.850;2022-10-16T07:03:28;0.80;;;0.80;;
53391;SDS011;41667;51.922;8.850;2022-10-16T07:05:53;3.30;;;0.80;;
53391;SDS011;41667;51.922;8.850;2022-10-16T07:08:18;1.00;;;1.00;;
53391;SDS011;41667;51.922;8.850;2022-10-16T07:10:43;7.70;;;1.20;;
53391;SDS011;41667;51.922;8.850;2022-10-16T07:13:08;1.45;;;1.35;;
53391;SDS011;41667;51.922;8.850;2022-10-16T07:15:34;1.20;;;1.20;;
53391;SDS011;41667;51.922;8.850;2022-10-16T07:17:59;0.90;;;0.90;;
53391;SDS011;41667;51.922;8.850;2022-10-16T07:20:24;3.28;;;0.90;;
53391;SDS011;41667;51.922;8.850;2022-10-16T07:22:49;3.63;;;1.02;;
53391;SDS011;41667;51.922;8.850;2022-10-16T07:25:14;1.40;;;1.00;;
53391;SDS011;41667;51.922;8.850;2022-10-16T07:27:39;1.03;;;0.83;;
53391;SDS011;41667;51.922;8.850;2022-10-16T07:30:05;1.58;;;0.90;;
53391;SDS011;41667;51.922;8.850;2022-10-16T07:32:31;0.80;;;0.80;;
53391;SDS011;41667;51.922;8.850;2022-10-16T07:34:56;1.85;;;0.82;;
53391;SDS011;41667;51.922;8.850;2022-10-16T07:37:21;1.50;;;1.40;;
53391;SDS011;41667;51.922;8.850;2022-10-16T07:39:47;1.52;;;1.40;;
53391;SDS011;41667;51.922;8.850;2022-10-16T07:42:12;0.90;;;0.90;;
53391;SDS011;41667;51.922;8.850;2022-10-16T07:44:37;2.47;;;1.03;;
53391;SDS011;41667;51.922;8.850;2022-10-16T07:47:02;1.03;;;1.00;;
53391;SDS011;41667;51.922;8.850;2022-10-16T07:49:27;1.00;;;1.00;;
53391;SDS011;41667;51.922;8.850;2022-10-16T07:51:53;2.20;;;1.47;;
53391;SDS011;41667;51.922;8.850;2022-10-16T07:54:18;0.90;;;0.90;;
53391;SDS011;41667;51.922;8.850;2022-10-16T07:56:43;0.90;;;0.90;;
53391;SDS011;41667;51.922;8.850;2022-10-16T07:59:08;0.97;;;0.80;;
53391;SDS011;41667;51.922;8.850;2022-10-16T08:01:33;0.90;;;0.90;;
53391;SDS011;41667;51.922;8.850;2022-10-16T08:03:58;0.80;;;0.80;;
53391;SDS011;41667;51.922;8.850;2022-10-16T08:06:24;1.70;;;0.90;;
53391;SDS011;41667;51.922;8.850;2022-10-16T08:08:49;4.57;;;2.67;;
53391;SDS011;41667;51.922;8.850;2022-10-16T08:11:14;3.50;;;0.90;;
53391;SDS011;41667;51.922;8.850;2022-10-16T08:13:40;1.90;;;1.00;;
53391;SDS011;41667;51.922;8.850;2022-10-16T08:16:05;2.70;;;1.85;;
53391;SDS011;41667;51.922;8.850;2022-10-16T08:18:32;5.53;;;0.93;;
53391;SDS011;41667;51.922;8.850;2022-10-16T08:20:58;1.85;;;1.00;;
53391;SDS011;41667;51.922;8.850;2022-10-16T08:23:25;1.40;;;1.10;;
53391;SDS011;41667;51.922;8.850;2022-10-16T08:25:51;1.60;;;1.45;;
53391;SDS011;41667;51.922;8.850;2022-10-16T08:28:16;0.93;;;0.80;;
53391;SDS011;41667;51.922;8.850;2022-10-16T08:30:41;1.38;;;1.10;;
53391;SDS011;41667;51.922;8.850;2022-10-16T08:33:06;1.20;;;1.10;;
53391;SDS011;41667;51.922;8.850;2022-10-16T08:35:32;2.07;;;1.10;;
53391;SDS011;41667;51.922;8.850;2022-10-16T08:37:57;1.38;;;1.08;;
53391;SDS011;41667;51.922;8.850;2022-10-16T08:40:24;1.47;;;1.20;;
53391;SDS011;41667;51.922;8.850;2022-10-16T08:43:11;1.05;;;1.05;;
53391;SDS011;41667;51.922;8.850;2022-10-16T08:48:17;4.07;;;0.93;;
53391;SDS011;41667;51.922;8.850;2022-10-16T08:50:43;2.10;;;1.65;;
53391;SDS011;41667;51.922;8.850;2022-10-16T08:53:10;1.00;;;1.00;;
53391;SDS011;41667;51.922;8.850;2022-10-16T08:55:41;1.20;;;1.20;;
53391;SDS011;41667;51.922;8.850;2022-10-16T08:58:11;4.50;;;1.00;;
53391;SDS011;41667;51.922;8.850;2022-10-16T09:00:36;0.90;;;0.90;;
53391;SDS011;41667;51.922;8.850;2022-10-16T09:08:37;1.20;;;1.15;;
53391;SDS011;41667;51.922;8.850;2022-10-16T09:11:01;3.05;;;2.40;;
53391;SDS011;41667;51.922;8.850;2022-10-16T09:13:34;0.90;;;0.90;;
53391;SDS011;41667;51.922;8.850;2022-10-16T09:16:07;1.98;;;1.50;;
53391;SDS011;41667;51.922;8.850;2022-10-16T09:21:14;1.65;;;1.00;;
53391;SDS011;41667;51.922;8.850;2022-10-16T09:23:40;1.58;;;0.82;;
53391;SDS011;41667;51.922;8.850;2022-10-16T09:26:09;2.57;;;1.20;;
53391;SDS011;41667;51.922;8.850;2022-10-16T09:28:34;0.80;;;0.80;;
53391;SDS011;41667;51.922;8.850;2022-10-16T09:31:00;0.80;;;0.80;;
53391;SDS011;41667;51.922;8.850;2022-10-16T09:33:27;0.90;;;0.90;;
53391;SDS011;41667;51.922;8.850;2022-10-16T09:35:54;1.73;;;1.33;;
53391;SDS011;41667;51.922;8.850;2022-10-16T09:38:22;0.70;;;0.70;;
53391;SDS011;41667;51.922;8.850;2022-10-16T09:40:47;2.50;;;0.98;;
53391;SDS011;41667;51.922;8.850;2022-10-16T09:43:16;0.97;;;0.90;;
53391;SDS011;41667;51.922;8.850;2022-10-16T09:45:53;1.45;;;1.35;;
53391;SDS011;41667;51.922;8.850;2022-10-16T09:48:18;2.53;;;0.98;;
53391;SDS011;41667;51.922;8.850;2022-10-16T09:50:54;1.05;;;0.90;;
53391;SDS011;41667;51.922;8.850;2022-10-16T09:53:19;2.83;;;0.73;;
53391;SDS011;41667;51.922;8.850;2022-10-16T09:55:51;1.75;;;1.65;;
53391;SDS011;41667;51.922;8.850;2022-10-16T09:58:17;1.70;;;1.25;;
53391;SDS011;41667;51.922;8.850;2022-10-16T10:00:42;1.15;;;0.93;;
53391;SDS011;41667;51.922;8.850;2022-10-16T10:03:15;7.15;;;1.70;;
53391;SDS011;41667;51.922;8.850;2022-10-16T10:05:48;3.05;;;0.80;;
53391;SDS011;41667;51.922;8.850;2022-10-16T10:08:14;2.30;;;1.00;;
53391;SDS011;41667;51.922;8.850;2022-10-16T10:10:41;3.35;;;0.80;;
53391;SDS011;41667;51.922;8.850;2022-10-16T10:13:19;1.25;;;0.88;;
53391;SDS011;41667;51.922;8.850;2022-10-16T10:15:45;3.35;;;0.73;;
53391;SDS011;41667;51.922;8.850;2022-10-16T10:18:17;4.05;;;1.10;;
53391;SDS011;41667;51.922;8.850;2022-10-16T10:20:43;1.60;;;0.60;;
53391;SDS011;41667;51.922;8.850;2022-10-16T10:23:22;1.98;;;0.52;;
53391;SDS011;41667;51.922;8.850;2022-10-16T10:28:24;2.33;;;0.70;;
53391;SDS011;41667;51.922;8.850;2022-10-16T10:33:24;1.90;;;0.80;;
53391;SDS011;41667;51.922;8.850;2022-10-16T10:36:00;1.50;;;0.60;;
53391;SDS011;41667;51.922;8.850;2022-10-16T10:38:31;1.98;;;0.70;;
53391;SDS011;41667;51.922;8.850;2022-10-16T10:46:10;0.60;;;0.60;;
53391;SDS011;41667;51.922;8.850;2022-10-16T10:48:43;2.22;;;0.60;;
53391;SDS011;41667;51.922;8.850;2022-10-16T10:51:15;0.40;;;0.40;;
53391;SDS011;41667;51.922;8.850;2022-10-16T10:53:52;2.55;;;0.65;;
53391;SDS011;41667;51.922;8.850;2022-10-16T10:56:36;0.82;;;0.55;;
53391;SDS011;41667;51.922;8.850;2022-10-16T11:01:56;0.73;;;0.73;;
53391;SDS011;41667;51.922;8.850;2022-10-16T11:04:29;0.63;;;0.63;;
53391;SDS011;41667;51.922;8.850;2022-10-16T11:07:02;0.70;;;0.70;;
53391;SDS011;41667;51.922;8.850;2022-10-16T11:09:36;4.93;;;0.60;;
53391;SDS011;41667;51.922;8.850;2022-10-16T11:14:30;0.63;;;0.50;;
53391;SDS011;41667;51.922;8.850;2022-10-16T11:17:08;0.60;;;0.50;;
53391;SDS011;41667;51.922;8.850;2022-10-16T11:19:48;1.98;;;0.50;;
53391;SDS011;41667;51.922;8.850;2022-10-16T11:24:46;0.47;;;0.47;;
53391;SDS011;41667;51.922;8.850;2022-10-16T11:27:15;2.03;;;0.50;;
53391;SDS011;41667;51.922;8.850;2022-10-16T11:29:45;1.70;;;0.60;;
53391;SDS011;41667;51.922;8.850;2022-10-16T11:32:20;0.40;;;0.40;;
53391;SDS011;41667;51.922;8.850;2022-10-16T11:34:48;1.38;;;0.55;;
53391;SDS011;41667;51.922;8.850;2022-10-16T11:37:17;2.35;;;0.40;;
53391;SDS011;41667;51.922;8.850;2022-10-16T11:39:44;3.30;;;0.75;;
53391;SDS011;41667;51.922;8.850;2022-10-16T11:42:22;3.50;;;1.42;;
53391;SDS011;41667;51.922;8.850;2022-10-16T11:45:10;0.77;;;0.77;;
53391;SDS011;41667;51.922;8.850;2022-10-16T11:47:45;2.60;;;0.57;;
53391;SDS011;41667;51.922;8.850;2022-10-16T11:50:17;3.15;;;0.85;;
53391;SDS011;41667;51.922;8.850;2022-10-16T11:52:51;1.90;;;1.00;;
53391;SDS011;41667;51.922;8.850;2022-10-16T11:55:22;2.42;;;1.35;;
53391;SDS011;41667;51.922;8.850;2022-10-16T11:57:50;1.55;;;0.65;;
53391;SDS011;41667;51.922;8.850;2022-10-16T12:00:23;0.45;;;0.45;;
53391;SDS011;41667;51.922;8.850;2022-10-16T12:02:52;0.40;;;0.40;;
53391;SDS011;41667;51.922;8.850;2022-10-16T12:10:27;1.75;;;0.55;;
53391;SDS011;41667;51.922;8.850;2022-10-16T12:12:53;2.70;;;0.52;;
53391;SDS011;41667;51.922;8.850;2022-10-16T12:17:46;3.10;;;1.02;;
53391;SDS011;41667;51.922;8.850;2022-10-16T12:22:37;1.00;;;0.80;;
53391;SDS011;41667;51.922;8.850;2022-10-16T12:25:17;0.40;;;0.40;;
53391;SDS011;41667;51.922;8.850;2022-10-16T12:27:43;0.77;;;0.60;;
53391;SDS011;41667;51.922;8.850;2022-10-16T12:30:14;1.37;;;0.60;;
53391;SDS011;41667;51.922;8.850;2022-10-16T12:32:44;2.50;;;1.17;;
53391;SDS011;41667;51.922;8.850;2022-10-16T12:35:19;0.70;;;0.40;;
53391;SDS011;41667;51.922;8.850;2022-10-16T12:37:45;1.42;;;0.90;;
53391;SDS011;41667;51.922;8.850;2022-10-16T12:40:11;1.65;;;1.08;;
53391;SDS011;41667;51.922;8.850;2022-10-16T12:42:37;2.92;;;0.60;;
53391;SDS011;41667;51.922;8.850;2022-10-16T12:45:13;3.77;;;0.60;;
53391;SDS011;41667;51.922;8.850;2022-10-16T12:47:48;0.80;;;0.80;;
53391;SDS011;41667;51.922;8.850;2022-10-16T12:50:22;1.52;;;0.80;;
53391;SDS011;41667;51.922;8.850;2022-10-16T12:52:48;1.80;;;0.90;;
53391;SDS011;41667;51.922;8.850;2022-10-16T12:55:17;0.63;;;0.63;;
53391;SDS011;41667;51.922;8.850;2022-10-16T13:03:11;3.00;;;0.57;;
53391;SDS011;41667;51.922;8.850;2022-10-16T13:08:46;1.73;;;0.50;;
53391;SDS011;41667;51.922;8.850;2022-10-16T13:16:18;1.77;;;0.50;;
53391;SDS011;41667;51.922;8.850;2022-10-16T13:18:53;1.52;;;0.80;;
53391;SDS011;41667;51.922;8.850;2022-10-16T13:21:35;4.13;;;0.80;;
53391;SDS011;41667;51.922;8.850;2022-10-16T13:24:10;4.50;;;2.80;;
53391;SDS011;41667;51.922;8.850;2022-10-16T13:29:04;1.52;;;0.60;;
53391;SDS011;41667;51.922;8.850;2022-10-16T13:31:29;3.15;;;0.82;;
53391;SDS011;41667;51.922;8.850;2022-10-16T13:33:56;0.30;;;0.30;;
53391;SDS011;41667;51.922;8.850;2022-10-16T13:36:33;0.90;;;0.60;;
53391;SDS011;41667;51.922;8.850;2022-10-16T13:39:00;2.92;;;1.23;;
53391;SDS011;41667;51.922;8.850;2022-10-16T13:41:25;0.90;;;0.40;;
53391;SDS011;41667;51.922;8.850;2022-10-16T13:43:51;2.90;;;0.80;;
53391;SDS011;41667;51.922;8.850;2022-10-16T13:46:21;2.38;;;0.82;;
53391;SDS011;41667;51.922;8.850;2022-10-16T13:48:59;1.20;;;1.10;;
53391;SDS011;41667;51.922;8.850;2022-10-16T13:51:25;5.00;;;0.75;;
53391;SDS011;41667;51.922;8.850;2022-10-16T13:53:50;0.60;;;0.40;;
53391;SDS011;41667;51.922;8.850;2022-10-16T13:56:17;0.70;;;0.70;;
53391;SDS011;41667;51.922;8.850;2022-10-16T13:58:43;2.00;;;0.60;;
53391;SDS011;41667;51.922;8.850;2022-10-16T14:01:16;0.47;;;0.32;;
53391;SDS011;41667;51.922;8.850;2022-10-16T14:03:43;1.58;;;0.52;;
53391;SDS011;41667;51.922;8.850;2022-10-16T14:06:13;1.13;;;0.55;;
53391;SDS011;41667;51.922;8.850;2022-10-16T14:08:41;0.60;;;0.60;;
53391;SDS011;41667;51.922;8.850;2022-10-16T14:11:07;1.65;;;0.60;;
53391;SDS011;41667;51.922;8.850;2022-10-16T14:13:34;0.70;;;0.25;;
53391;SDS011;41667;51.922;8.850;2022-10-16T14:16:02;0.40;;;0.40;;
53391;SDS011;41667;51.922;8.850;2022-10-16T14:18:30;1.63;;;0.43;;
53391;SDS011;41667;51.922;8.850;2022-10-16T14:21:01;1.55;;;0.50;;
53391;SDS011;41667;51.922;8.850;2022-10-16T14:23:37;1.92;;;0.50;;
53391;SDS011;41667;51.922;8.850;2022-10-16T14:26:45;0.57;;;0.50;;
53391;SDS011;41667;51.922;8.850;2022-10-16T14:29:02;0.60;;;0.60;;
53391;SDS011;41667;51.922;8.850;2022-10-16T14:31:30;0.55;;;0.45;;
53391;SDS011;41667;51.922;8.850;2022-10-16T14:33:58;2.20;;;0.60;;
53391;SDS011;41667;51.922;8.850;2022-10-16T14:36:24;3.55;;;0.50;;
53391;SDS011;41667;51.922;8.850;2022-10-16T14:41:27;0.68;;;0.52;;
53391;SDS011;41667;51.922;8.850;2022-10-16T14:43:53;2.00;;;0.45;;
53391;SDS011;41667;51.922;8.850;2022-10-16T14:46:20;2.10;;;0.55;;
53391;SDS011;41667;51.922;8.850;2022-10-16T14:48:46;1.05;;;0.55;;
53391;SDS011;41667;51.922;8.850;2022-10-16T14:51:16;0.80;;;0.52;;
53391;SDS011;41667;51.922;8.850;2022-10-16T14:53:41;0.50;;;0.50;;
53391;SDS011;41667;51.922;8.850;2022-10-16T14:56:07;1.00;;;0.68;;
53391;SDS011;41667;51.922;8.850;2022-10-16T14:58:33;1.75;;;0.80;;
53391;SDS011;41667;51.922;8.850;2022-10-16T15:00:58;1.87;;;0.70;;
53391;SDS011;41667;51.922;8.850;2022-10-16T15:03:23;0.80;;;0.50;;
53391;SDS011;41667;51.922;8.850;2022-10-16T15:05:48;0.60;;;0.60;;
53391;SDS011;41667;51.922;8.850;2022-10-16T15:08:13;2.00;;;0.47;;
53391;SDS011;41667;51.922;8.850;2022-10-16T15:10:40;2.42;;;0.80;;
53391;SDS011;41667;51.922;8.850;2022-10-16T15:13:06;3.70;;;1.10;;
53391;SDS011;41667;51.922;8.850;2022-10-16T15:15:35;0.90;;;0.90;;
53391;SDS011;41667;51.922;8.850;2022-10-16T15:18:01;1.98;;;0.90;;
53391;SDS011;41667;51.922;8.850;2022-10-16T15:20:28;4.03;;;1.20;;
53391;SDS011;41667;51.922;8.850;2022-10-16T15:22:55;8.30;;;3.30;;
53391;SDS011;41667;51.922;8.850;2022-10-16T15:27:57;2.78;;;2.45;;
53391;SDS011;41667;51.922;8.850;2022-10-16T15:30:22;2.38;;;1.25;;
53391;SDS011;41667;51.922;8.850;2022-10-16T15:32:48;5.97;;;0.87;;
53391;SDS011;41667;51.922;8.850;2022-10-16T15:35:13;3.23;;;0.90;;
53391;SDS011;41667;51.922;8.850;2022-10-16T15:37:38;2.73;;;0.90;;
53391;SDS011;41667;51.922;8.850;2022-10-16T15:40:03;3.05;;;0.77;;
53391;SDS011;41667;51.922;8.850;2022-10-16T15:42:28;2.42;;;0.70;;
53391;SDS011;41667;51.922;8.850;2022-10-16T15:44:54;2.28;;;2.03;;
53391;SDS011;41667;51.922;8.850;2022-10-16T15:47:19;3.67;;;0.90;;
53391;SDS011;41667;51.922;8.850;2022-10-16T15:49:44;2.15;;;1.27;;
53391;SDS011;41667;51.922;8.850;2022-10-16T15:52:10;7.38;;;2.67;;
53391;SDS011;41667;51.922;8.850;2022-10-16T15:54:35;5.25;;;2.97;;
53391;SDS011;41667;51.922;8.850;2022-10-16T15:57:00;6.90;;;4.53;;
53391;SDS011;41667;51.922;8.850;2022-10-16T15:59:26;12.63;;;5.13;;
53391;SDS011;41667;51.922;8.850;2022-10-16T16:01:51;9.97;;;7.33;;
53391;SDS011;41667;51.922;8.850;2022-10-16T16:04:16;11.00;;;7.53;;